LSZS

Details ICAO LSZS (SMV)
Name Samedan
Region Switzerland
Timezone Europe/Zurich (UTC+2.0)
Plans Departing 109
Arriving 172
Stats Elevation 5,600 ft / 1,707 m (AMSL)
Location 46.534207° 9.883938°
Runways 1
Magnetic Variation 2.718° E
Sunrise 2018-06-22 03:28:49 UTC / 2018-06-22 05:28:49 Local
Sunset 2018-06-22 19:18:31 UTC / 2018-06-22 21:18:31 Local
Advertisement - Login to hide

Runways

ID Width Length Bearing (true) Bearing (mag) Surface Threshold Offset Overrun Length
03 131 ft / 40 m 6,059 ft / 1,847 m 29.10° 26.38° Asphalt 0 ft / 0 m 0 ft / 0 m
21 131 ft / 40 m 6,059 ft / 1,847 m 209.10° 206.38° Asphalt 361 ft / 110 m 0 ft / 0 m

Map

Weather


0- 5 10 15 20 25 30 35+ Temperature / ° C

Clouds and Precipitation
Forecast for 2018-06-23 00:00 UTC. Updated an hour ago

Ground ~20,000 ft ~40,000 ft Winds

METAR

LSZS 222220Z AUTO VRB03KT CAVOK 01/M03 Q1025

TAF

Not found

Frequencies

Recorded 136.60 MHz ATIS
Tower 135.32 MHz AFIS
Warning: Do not use this data for real-world aviation or navigation. No guarantee of current accuracy is given.